sensor_id;sensor_type;location;lat;lon;timestamp;pressure;altitude;pressure_sealevel;temperature;humidity
35224;BME280;21367;51.930;8.112;2023-05-12T00:03:23;100942.88;;;12.30;100.00
35224;BME280;21367;51.930;8.112;2023-05-12T00:08:27;100936.66;;;12.47;100.00
35224;BME280;21367;51.930;8.112;2023-05-12T00:13:36;100938.81;;;12.36;100.00
35224;BME280;21367;51.930;8.112;2023-05-12T00:18:40;100945.50;;;12.31;100.00
35224;BME280;21367;51.930;8.112;2023-05-12T00:23:43;100962.75;;;12.11;100.00
35224;BME280;21367;51.930;8.112;2023-05-12T00:28:50;100959.81;;;12.02;100.00
35224;BME280;21367;51.930;8.112;2023-05-12T00:33:54;100975.78;;;11.93;100.00
35224;BME280;21367;51.930;8.112;2023-05-12T00:38:58;100972.25;;;12.12;100.00
35224;BME280;21367;51.930;8.112;2023-05-12T00:44:04;100975.41;;;12.05;100.00
35224;BME280;21367;51.930;8.112;2023-05-12T00:49:08;100980.38;;;12.00;100.00
35224;BME280;21367;51.930;8.112;2023-05-12T00:54:12;100969.25;;;12.01;100.00
35224;BME280;21367;51.930;8.112;2023-05-12T00:59:19;100973.84;;;11.88;100.00
35224;BME280;21367;51.930;8.112;2023-05-12T01:04:23;100974.78;;;11.90;100.00
35224;BME280;21367;51.930;8.112;2023-05-12T01:09:27;100962.94;;;11.74;100.00
35224;BME280;21367;51.930;8.112;2023-05-12T01:14:35;100973.44;;;11.78;100.00
35224;BME280;21367;51.930;8.112;2023-05-12T01:19:40;100971.50;;;11.94;100.00
35224;BME280;21367;51.930;8.112;2023-05-12T01:24:49;100968.75;;;11.89;100.00
35224;BME280;21367;51.930;8.112;2023-05-12T01:29:57;100968.03;;;11.93;100.00
35224;BME280;21367;51.930;8.112;2023-05-12T01:35:03;100963.50;;;12.52;100.00
35224;BME280;21367;51.930;8.112;2023-05-12T01:40:08;100954.81;;;12.27;100.00
35224;BME280;21367;51.930;8.112;2023-05-12T01:45:15;100960.16;;;12.32;100.00
35224;BME280;21367;51.930;8.112;2023-05-12T01:50:20;100965.53;;;11.95;100.00
35224;BME280;21367;51.930;8.112;2023-05-12T01:55:23;100963.56;;;11.88;100.00
35224;BME280;21367;51.930;8.112;2023-05-12T02:00:33;100963.25;;;11.61;100.00
35224;BME280;21367;51.930;8.112;2023-05-12T02:05:38;100968.91;;;11.94;100.00
35224;BME280;21367;51.930;8.112;2023-05-12T02:10:43;100970.25;;;12.05;100.00
35224;BME280;21367;51.930;8.112;2023-05-12T02:15:49;100967.91;;;11.90;100.00
35224;BME280;21367;51.930;8.112;2023-05-12T02:20:53;100969.75;;;11.93;100.00
35224;BME280;21367;51.930;8.112;2023-05-12T02:25:57;100971.34;;;11.70;100.00
35224;BME280;21367;51.930;8.112;2023-05-12T02:31:03;100979.13;;;11.71;100.00
35224;BME280;21367;51.930;8.112;2023-05-12T02:36:08;100975.50;;;11.47;100.00
35224;BME280;21367;51.930;8.112;2023-05-12T02:41:12;100975.75;;;11.32;100.00
35224;BME280;21367;51.930;8.112;2023-05-12T02:46:19;100980.16;;;11.34;100.00
35224;BME280;21367;51.930;8.112;2023-05-12T02:51:23;100978.25;;;11.71;100.00
35224;BME280;21367;51.930;8.112;2023-05-12T02:56:27;100974.94;;;11.33;100.00
35224;BME280;21367;51.930;8.112;2023-05-12T03:01:34;100960.09;;;11.68;100.00
35224;BME280;21367;51.930;8.112;2023-05-12T03:06:38;100968.78;;;11.29;100.00
35224;BME280;21367;51.930;8.112;2023-05-12T03:11:41;100961.97;;;11.10;100.00
35224;BME280;21367;51.930;8.112;2023-05-12T03:16:48;100970.75;;;11.56;100.00
35224;BME280;21367;51.930;8.112;2023-05-12T03:21:53;100962.69;;;11.27;100.00
35224;BME280;21367;51.930;8.112;2023-05-12T03:26:58;100972.97;;;11.27;100.00
35224;BME280;21367;51.930;8.112;2023-05-12T03:32:05;100980.31;;;11.58;100.00
35224;BME280;21367;51.930;8.112;2023-05-12T03:37:09;100971.09;;;11.23;100.00
35224;BME280;21367;51.930;8.112;2023-05-12T03:42:13;100981.69;;;11.50;100.00
35224;BME280;21367;51.930;8.112;2023-05-12T03:47:20;100972.22;;;11.70;100.00
35224;BME280;21367;51.930;8.112;2023-05-12T03:52:24;100979.25;;;11.53;100.00
35224;BME280;21367;51.930;8.112;2023-05-12T03:57:27;100976.16;;;11.22;100.00
35224;BME280;21367;51.930;8.112;2023-05-12T04:02:34;100983.19;;;11.45;100.00
35224;BME280;21367;51.930;8.112;2023-05-12T04:07:37;100983.75;;;11.99;100.00
35224;BME280;21367;51.930;8.112;2023-05-12T04:12:41;100993.53;;;11.47;100.00
35224;BME280;21367;51.930;8.112;2023-05-12T04:17:47;101000.34;;;11.66;100.00
35224;BME280;21367;51.930;8.112;2023-05-12T04:22:53;101000.72;;;11.94;100.00
35224;BME280;21367;51.930;8.112;2023-05-12T04:27:57;101004.31;;;11.98;100.00
35224;BME280;21367;51.930;8.112;2023-05-12T04:33:03;101010.88;;;12.12;100.00
35224;BME280;21367;51.930;8.112;2023-05-12T04:38:06;101016.03;;;12.12;100.00
35224;BME280;21367;51.930;8.112;2023-05-12T04:43:11;101023.91;;;11.94;100.00
35224;BME280;21367;51.930;8.112;2023-05-12T04:48:18;101032.56;;;12.17;100.00
35224;BME280;21367;51.930;8.112;2023-05-12T04:53:22;101037.69;;;12.82;100.00
35224;BME280;21367;51.930;8.112;2023-05-12T04:58:34;101054.16;;;12.00;100.00
35224;BME280;21367;51.930;8.112;2023-05-12T05:03:42;101059.31;;;12.00;100.00
35224;BME280;21367;51.930;8.112;2023-05-12T05:08:46;101064.59;;;12.03;100.00
35224;BME280;21367;51.930;8.112;2023-05-12T05:13:50;101084.44;;;12.68;100.00
35224;BME280;21367;51.930;8.112;2023-05-12T05:18:57;101081.84;;;12.89;100.00
35224;BME280;21367;51.930;8.112;2023-05-12T05:24:00;101080.59;;;12.80;100.00
35224;BME280;21367;51.930;8.112;2023-05-12T05:29:04;101084.13;;;12.82;100.00
35224;BME280;21367;51.930;8.112;2023-05-12T05:34:12;101100.59;;;12.85;100.00
35224;BME280;21367;51.930;8.112;2023-05-12T05:39:16;101105.91;;;12.46;100.00
35224;BME280;21367;51.930;8.112;2023-05-12T05:44:20;101103.09;;;12.40;100.00
35224;BME280;21367;51.930;8.112;2023-05-12T05:49:28;101108.09;;;12.79;100.00
35224;BME280;21367;51.930;8.112;2023-05-12T05:54:34;101115.94;;;13.26;100.00
35224;BME280;21367;51.930;8.112;2023-05-12T05:59:38;101111.16;;;13.14;100.00
35224;BME280;21367;51.930;8.112;2023-05-12T06:04:44;101112.16;;;13.17;100.00
35224;BME280;21367;51.930;8.112;2023-05-12T06:09:49;101119.59;;;13.10;100.00
35224;BME280;21367;51.930;8.112;2023-05-12T06:14:52;101130.00;;;13.34;100.00
35224;BME280;21367;51.930;8.112;2023-05-12T06:19:59;101134.44;;;13.38;100.00
35224;BME280;21367;51.930;8.112;2023-05-12T06:25:05;101147.34;;;13.15;100.00
35224;BME280;21367;51.930;8.112;2023-05-12T06:30:10;101145.63;;;13.37;100.00
35224;BME280;21367;51.930;8.112;2023-05-12T06:35:16;101151.03;;;14.15;100.00
35224;BME280;21367;51.930;8.112;2023-05-12T06:40:20;101141.63;;;14.17;100.00
35224;BME280;21367;51.930;8.112;2023-05-12T06:45:24;101141.84;;;14.23;100.00
35224;BME280;21367;51.930;8.112;2023-05-12T06:50:30;101148.44;;;14.15;100.00
35224;BME280;21367;51.930;8.112;2023-05-12T06:55:34;101146.38;;;14.30;100.00
35224;BME280;21367;51.930;8.112;2023-05-12T07:00:37;101155.50;;;14.70;100.00
35224;BME280;21367;51.930;8.112;2023-05-12T07:05:43;101153.41;;;14.60;100.00
35224;BME280;21367;51.930;8.112;2023-05-12T07:10:47;101152.84;;;14.69;100.00
35224;BME280;21367;51.930;8.112;2023-05-12T07:15:51;101156.19;;;14.66;100.00
35224;BME280;21367;51.930;8.112;2023-05-12T07:20:57;101164.56;;;14.85;100.00
35224;BME280;21367;51.930;8.112;2023-05-12T07:26:02;101163.59;;;14.81;100.00
35224;BME280;21367;51.930;8.112;2023-05-12T07:31:06;101162.06;;;14.88;100.00
35224;BME280;21367;51.930;8.112;2023-05-12T07:36:13;101161.44;;;14.68;100.00
35224;BME280;21367;51.930;8.112;2023-05-12T07:41:17;101162.66;;;15.35;100.00
35224;BME280;21367;51.930;8.112;2023-05-12T07:46:21;101164.19;;;16.18;99.79
35224;BME280;21367;51.930;8.112;2023-05-12T07:51:27;101160.03;;;15.63;95.91
35224;BME280;21367;51.930;8.112;2023-05-12T07:56:30;101165.28;;;15.65;100.00
35224;BME280;21367;51.930;8.112;2023-05-12T08:01:34;101163.00;;;16.06;94.73
35224;BME280;21367;51.930;8.112;2023-05-12T08:06:41;101164.94;;;15.54;98.84
35224;BME280;21367;51.930;8.112;2023-05-12T08:11:45;101157.75;;;16.37;93.79
35224;BME280;21367;51.930;8.112;2023-05-12T08:16:49;101165.16;;;16.55;92.96
35224;BME280;21367;51.930;8.112;2023-05-12T08:21:56;101167.06;;;15.96;91.64
35224;BME280;21367;51.930;8.112;2023-05-12T08:27:00;101170.50;;;16.96;88.06
35224;BME280;21367;51.930;8.112;2023-05-12T08:32:05;101167.69;;;16.54;88.22
35224;BME280;21367;51.930;8.112;2023-05-12T08:37:12;101171.78;;;16.77;87.68
35224;BME280;21367;51.930;8.112;2023-05-12T08:42:26;101173.41;;;17.49;84.70
35224;BME280;21367;51.930;8.112;2023-05-12T08:47:33;101172.22;;;17.35;82.35
35224;BME280;21367;51.930;8.112;2023-05-12T08:52:40;101171.28;;;17.31;82.33
35224;BME280;21367;51.930;8.112;2023-05-12T08:57:44;101177.66;;;18.32;79.58
35224;BME280;21367;51.930;8.112;2023-05-12T09:02:50;101185.63;;;19.55;76.63
35224;BME280;21367;51.930;8.112;2023-05-12T09:07:59;101187.09;;;18.76;76.75
35224;BME280;21367;51.930;8.112;2023-05-12T09:13:10;101173.25;;;20.07;72.13
35224;BME280;21367;51.930;8.112;2023-05-12T09:18:16;101171.88;;;19.64;73.95
35224;BME280;21367;51.930;8.112;2023-05-12T09:23:24;101168.38;;;20.43;70.59
35224;BME280;21367;51.930;8.112;2023-05-12T09:28:37;101163.81;;;20.19;71.87
35224;BME280;21367;51.930;8.112;2023-05-12T09:33:41;101170.88;;;20.30;68.17
35224;BME280;21367;51.930;8.112;2023-05-12T09:38:57;101176.38;;;19.77;71.14
35224;BME280;21367;51.930;8.112;2023-05-12T09:44:05;101165.41;;;20.03;71.29
35224;BME280;21367;51.930;8.112;2023-05-12T09:49:09;101164.63;;;20.13;72.76
35224;BME280;21367;51.930;8.112;2023-05-12T09:54:25;101155.09;;;21.25;66.89
35224;BME280;21367;51.930;8.112;2023-05-12T09:59:30;101155.09;;;21.33;68.66
35224;BME280;21367;51.930;8.112;2023-05-12T10:04:39;101152.81;;;22.18;66.16
35224;BME280;21367;51.930;8.112;2023-05-12T10:09:48;101146.69;;;22.04;65.21
35224;BME280;21367;51.930;8.112;2023-05-12T10:14:53;101149.34;;;22.24;69.12
35224;BME280;21367;51.930;8.112;2023-05-12T10:19:58;101150.88;;;23.75;61.08
35224;BME280;21367;51.930;8.112;2023-05-12T10:25:10;101153.56;;;21.70;69.00
35224;BME280;21367;51.930;8.112;2023-05-12T10:30:15;101140.59;;;23.02;62.76
35224;BME280;21367;51.930;8.112;2023-05-12T10:35:19;101136.13;;;23.42;60.97
35224;BME280;21367;51.930;8.112;2023-05-12T10:40:26;101130.63;;;23.96;60.54
35224;BME280;21367;51.930;8.112;2023-05-12T10:45:34;101128.88;;;25.00;58.23
35224;BME280;21367;51.930;8.112;2023-05-12T10:50:51;101131.63;;;23.76;62.34
35224;BME280;21367;51.930;8.112;2023-05-12T10:56:02;101122.78;;;24.96;57.88
35224;BME280;21367;51.930;8.112;2023-05-12T11:01:06;101119.22;;;23.97;58.86
35224;BME280;21367;51.930;8.112;2023-05-12T11:06:17;101120.41;;;23.33;57.96
35224;BME280;21367;51.930;8.112;2023-05-12T11:11:25;101116.69;;;23.83;59.09
35224;BME280;21367;51.930;8.112;2023-05-12T11:16:29;101119.59;;;24.66;56.39
35224;BME280;21367;51.930;8.112;2023-05-12T11:21:34;101117.91;;;22.96;60.81
35224;BME280;21367;51.930;8.112;2023-05-12T11:26:41;101113.13;;;23.95;58.29
35224;BME280;21367;51.930;8.112;2023-05-12T11:31:49;101116.25;;;24.48;57.41
35224;BME280;21367;51.930;8.112;2023-05-12T11:36:55;101109.25;;;24.48;55.57
35224;BME280;21367;51.930;8.112;2023-05-12T11:42:04;101115.06;;;23.54;56.25
35224;BME280;21367;51.930;8.112;2023-05-12T11:47:11;101108.66;;;24.08;57.65
35224;BME280;21367;51.930;8.112;2023-05-12T11:52:16;101108.91;;;24.82;51.44
35224;BME280;21367;51.930;8.112;2023-05-12T11:57:28;101110.94;;;24.54;52.45
35224;BME280;21367;51.930;8.112;2023-05-12T12:02:33;101117.00;;;24.63;54.17
35224;BME280;21367;51.930;8.112;2023-05-12T12:07:39;101119.16;;;24.08;49.79
35224;BME280;21367;51.930;8.112;2023-05-12T12:12:46;101123.41;;;24.26;50.33
35224;BME280;21367;51.930;8.112;2023-05-12T12:17:50;101125.75;;;22.99;50.99
35224;BME280;21367;51.930;8.112;2023-05-12T12:22:55;101117.06;;;22.31;54.63
35224;BME280;21367;51.930;8.112;2023-05-12T12:28:07;101129.22;;;22.00;55.85
35224;BME280;21367;51.930;8.112;2023-05-12T12:33:11;101122.28;;;22.21;52.83
35224;BME280;21367;51.930;8.112;2023-05-12T12:38:15;101122.25;;;22.11;52.41
35224;BME280;21367;51.930;8.112;2023-05-12T12:43:21;101121.31;;;24.70;49.46
35224;BME280;21367;51.930;8.112;2023-05-12T12:48:25;101125.59;;;23.45;49.32
35224;BME280;21367;51.930;8.112;2023-05-12T12:53:29;101126.06;;;24.22;47.93
35224;BME280;21367;51.930;8.112;2023-05-12T12:58:37;101120.41;;;25.50;46.93
35224;BME280;21367;51.930;8.112;2023-05-12T13:03:40;101118.50;;;23.66;43.95
35224;BME280;21367;51.930;8.112;2023-05-12T13:08:44;101115.38;;;24.47;45.71
35224;BME280;21367;51.930;8.112;2023-05-12T13:13:52;101124.06;;;22.54;47.08
35224;BME280;21367;51.930;8.112;2023-05-12T13:18:57;101129.03;;;23.61;47.89
35224;BME280;21367;51.930;8.112;2023-05-12T13:24:01;101126.50;;;23.37;46.89
35224;BME280;21367;51.930;8.112;2023-05-12T13:29:08;101129.03;;;23.58;46.45
35224;BME280;21367;51.930;8.112;2023-05-12T13:34:12;101129.06;;;23.55;44.77
35224;BME280;21367;51.930;8.112;2023-05-12T13:39:16;101132.78;;;22.67;47.77
35224;BME280;21367;51.930;8.112;2023-05-12T13:44:23;101134.44;;;22.12;48.10
35224;BME280;21367;51.930;8.112;2023-05-12T13:49:28;101132.56;;;21.55;49.18
35224;BME280;21367;51.930;8.112;2023-05-12T13:54:32;101128.16;;;21.40;52.05
35224;BME280;21367;51.930;8.112;2023-05-12T13:59:39;101136.16;;;21.93;49.61
35224;BME280;21367;51.930;8.112;2023-05-12T14:04:43;101138.00;;;22.21;50.28
35224;BME280;21367;51.930;8.112;2023-05-12T14:09:48;101152.84;;;22.52;50.44
35224;BME280;21367;51.930;8.112;2023-05-12T14:14:55;101148.41;;;21.99;51.29
35224;BME280;21367;51.930;8.112;2023-05-12T14:19:59;101151.19;;;20.63;53.67
35224;BME280;21367;51.930;8.112;2023-05-12T14:25:07;101151.75;;;21.58;53.42
35224;BME280;21367;51.930;8.112;2023-05-12T14:30:14;101149.81;;;21.19;54.85
35224;BME280;21367;51.930;8.112;2023-05-12T14:35:18;101150.91;;;21.65;52.42
35224;BME280;21367;51.930;8.112;2023-05-12T14:40:26;101157.34;;;20.73;54.90
35224;BME280;21367;51.930;8.112;2023-05-12T14:45:34;101146.06;;;20.78;56.39
35224;BME280;21367;51.930;8.112;2023-05-12T14:50:40;101145.72;;;21.78;53.52
35224;BME280;21367;51.930;8.112;2023-05-12T14:55:45;101141.88;;;21.05;53.78
35224;BME280;21367;51.930;8.112;2023-05-12T15:00:52;101149.25;;;23.39;52.37
35224;BME280;21367;51.930;8.112;2023-05-12T15:05:56;101148.59;;;24.57;48.11
35224;BME280;21367;51.930;8.112;2023-05-12T15:11:01;101145.22;;;26.00;45.94
35224;BME280;21367;51.930;8.112;2023-05-12T15:16:07;101135.91;;;27.75;41.08
35224;BME280;21367;51.930;8.112;2023-05-12T15:21:11;101145.16;;;26.03;42.71
35224;BME280;21367;51.930;8.112;2023-05-12T15:26:16;101151.84;;;25.64;45.89
35224;BME280;21367;51.930;8.112;2023-05-12T15:31:24;101143.97;;;23.41;47.19
35224;BME280;21367;51.930;8.112;2023-05-12T15:36:30;101147.56;;;22.11;49.59
35224;BME280;21367;51.930;8.112;2023-05-12T15:41:36;101150.47;;;20.84;51.25
35224;BME280;21367;51.930;8.112;2023-05-12T15:46:43;101154.81;;;20.87;50.67
35224;BME280;21367;51.930;8.112;2023-05-12T15:51:48;101150.56;;;21.02;51.82
35224;BME280;21367;51.930;8.112;2023-05-12T15:56:51;101154.44;;;20.41;55.22
35224;BME280;21367;51.930;8.112;2023-05-12T16:01:58;101155.66;;;20.78;51.71
35224;BME280;21367;51.930;8.112;2023-05-12T16:07:02;101153.00;;;20.72;53.47
35224;BME280;21367;51.930;8.112;2023-05-12T16:12:07;101142.38;;;22.72;50.45
35224;BME280;21367;51.930;8.112;2023-05-12T16:17:14;101142.13;;;23.63;48.37
35224;BME280;21367;51.930;8.112;2023-05-12T16:22:18;101146.63;;;23.31;49.27
35224;BME280;21367;51.930;8.112;2023-05-12T16:27:23;101133.81;;;24.35;47.66
35224;BME280;21367;51.930;8.112;2023-05-12T16:32:30;101136.13;;;23.36;48.60
35224;BME280;21367;51.930;8.112;2023-05-12T16:37:34;101142.91;;;23.92;46.94
35224;BME280;21367;51.930;8.112;2023-05-12T16:42:37;101133.19;;;24.02;46.47
35224;BME280;21367;51.930;8.112;2023-05-12T16:47:45;101130.44;;;24.22;46.36
35224;BME280;21367;51.930;8.112;2023-05-12T16:52:49;101129.78;;;24.97;46.00
35224;BME280;21367;51.930;8.112;2023-05-12T16:57:55;101135.44;;;24.60;44.83
35224;BME280;21367;51.930;8.112;2023-05-12T17:03:03;101149.28;;;22.12;48.23
35224;BME280;21367;51.930;8.112;2023-05-12T17:08:08;101147.31;;;21.36;48.17
35224;BME280;21367;51.930;8.112;2023-05-12T17:13:13;101143.06;;;23.52;43.84
35224;BME280;21367;51.930;8.112;2023-05-12T17:18:19;101155.28;;;23.61;43.46
35224;BME280;21367;51.930;8.112;2023-05-12T17:23:24;101148.50;;;23.03;43.97
35224;BME280;21367;51.930;8.112;2023-05-12T17:28:28;101165.88;;;22.14;47.24
35224;BME280;21367;51.930;8.112;2023-05-12T17:33:35;101165.00;;;21.98;48.76
35224;BME280;21367;51.930;8.112;2023-05-12T17:38:39;101169.28;;;21.73;49.09
35224;BME280;21367;51.930;8.112;2023-05-12T17:43:43;101177.81;;;20.30;50.90
35224;BME280;21367;51.930;8.112;2023-05-12T17:48:50;101185.09;;;20.62;51.03
35224;BME280;21367;51.930;8.112;2023-05-12T17:53:54;101181.75;;;19.88;53.36
35224;BME280;21367;51.930;8.112;2023-05-12T17:58:58;101186.06;;;19.86;53.07
35224;BME280;21367;51.930;8.112;2023-05-12T18:04:05;101183.09;;;20.31;54.24
35224;BME280;21367;51.930;8.112;2023-05-12T18:09:09;101182.78;;;20.05;53.48
35224;BME280;21367;51.930;8.112;2023-05-12T18:14:13;101196.03;;;19.49;54.37
35224;BME280;21367;51.930;8.112;2023-05-12T18:19:20;101189.38;;;19.73;54.87
35224;BME280;21367;51.930;8.112;2023-05-12T18:24:27;101195.47;;;19.73;57.02
35224;BME280;21367;51.930;8.112;2023-05-12T18:29:31;101201.81;;;19.95;55.23
35224;BME280;21367;51.930;8.112;2023-05-12T18:34:37;101202.50;;;19.79;55.95
35224;BME280;21367;51.930;8.112;2023-05-12T18:39:43;101212.94;;;19.79;58.14
35224;BME280;21367;51.930;8.112;2023-05-12T18:44:47;101212.56;;;19.53;55.77
35224;BME280;21367;51.930;8.112;2023-05-12T18:49:54;101218.44;;;19.38;56.61
35224;BME280;21367;51.930;8.112;2023-05-12T18:54:58;101219.47;;;18.91;58.71
35224;BME280;21367;51.930;8.112;2023-05-12T19:00:03;101226.06;;;18.71;60.70
35224;BME280;21367;51.930;8.112;2023-05-12T19:05:10;101218.53;;;18.38;60.29
35224;BME280;21367;51.930;8.112;2023-05-12T19:10:14;101226.56;;;18.52;57.56
35224;BME280;21367;51.930;8.112;2023-05-12T19:15:17;101233.28;;;18.39;57.05
35224;BME280;21367;51.930;8.112;2023-05-12T19:20:25;101249.22;;;18.10;59.33
35224;BME280;21367;51.930;8.112;2023-05-12T19:25:29;101239.03;;;17.78;60.35
35224;BME280;21367;51.930;8.112;2023-05-12T19:30:33;101253.69;;;17.37;63.82
35224;BME280;21367;51.930;8.112;2023-05-12T19:35:40;101256.50;;;17.10;64.55
35224;BME280;21367;51.930;8.112;2023-05-12T19:40:48;101261.97;;;17.21;64.95
35224;BME280;21367;51.930;8.112;2023-05-12T19:45:52;101256.41;;;17.05;65.75
35224;BME280;21367;51.930;8.112;2023-05-12T19:50:58;101256.50;;;16.75;66.70
35224;BME280;21367;51.930;8.112;2023-05-12T19:56:03;101268.09;;;16.56;68.32
35224;BME280;21367;51.930;8.112;2023-05-12T20:01:07;101267.91;;;16.49;68.14
35224;BME280;21367;51.930;8.112;2023-05-12T20:06:15;101263.19;;;16.35;68.76
35224;BME280;21367;51.930;8.112;2023-05-12T20:11:19;101266.78;;;16.09;68.69
35224;BME280;21367;51.930;8.112;2023-05-12T20:16:23;101268.91;;;15.92;68.75
35224;BME280;21367;51.930;8.112;2023-05-12T20:21:30;101276.50;;;15.86;69.20
35224;BME280;21367;51.930;8.112;2023-05-12T20:26:34;101283.06;;;15.75;69.34
35224;BME280;21367;51.930;8.112;2023-05-12T20:31:38;101286.97;;;15.62;68.99
35224;BME280;21367;51.930;8.112;2023-05-12T20:36:45;101292.00;;;15.57;70.33
35224;BME280;21367;51.930;8.112;2023-05-12T20:41:49;101292.28;;;15.66;68.74
35224;BME280;21367;51.930;8.112;2023-05-12T20:46:55;101299.16;;;15.37;70.30
35224;BME280;21367;51.930;8.112;2023-05-12T20:52:02;101294.75;;;15.08;71.93
35224;BME280;21367;51.930;8.112;2023-05-12T20:57:05;101299.75;;;15.03;72.81
35224;BME280;21367;51.930;8.112;2023-05-12T21:02:09;101297.16;;;15.03;73.19
35224;BME280;21367;51.930;8.112;2023-05-12T21:07:16;101298.81;;;15.01;70.67
35224;BME280;21367;51.930;8.112;2023-05-12T21:12:20;101307.28;;;14.95;70.56
35224;BME280;21367;51.930;8.112;2023-05-12T21:17:24;101302.50;;;14.82;73.75
35224;BME280;21367;51.930;8.112;2023-05-12T21:22:30;101305.69;;;14.75;74.61
35224;BME280;21367;51.930;8.112;2023-05-12T21:27:39;101313.03;;;14.63;75.70
35224;BME280;21367;51.930;8.112;2023-05-12T21:32:42;101314.41;;;14.53;75.19
35224;BME280;21367;51.930;8.112;2023-05-12T21:37:49;101316.06;;;14.75;75.04
35224;BME280;21367;51.930;8.112;2023-05-12T21:42:52;101314.94;;;14.67;73.51
35224;BME280;21367;51.930;8.112;2023-05-12T21:47:56;101321.88;;;14.45;75.13
35224;BME280;21367;51.930;8.112;2023-05-12T21:53:03;101310.72;;;14.46;74.48
35224;BME280;21367;51.930;8.112;2023-05-12T21:58:06;101320.44;;;14.29;74.29
35224;BME280;21367;51.930;8.112;2023-05-12T22:03:10;101321.25;;;14.28;75.60
35224;BME280;21367;51.930;8.112;2023-05-12T22:08:17;101320.38;;;14.28;75.52
35224;BME280;21367;51.930;8.112;2023-05-12T22:13:20;101323.19;;;14.34;73.43
35224;BME280;21367;51.930;8.112;2023-05-12T22:18:24;101326.16;;;14.21;75.19
35224;BME280;21367;51.930;8.112;2023-05-12T22:23:31;101329.69;;;14.23;74.41
35224;BME280;21367;51.930;8.112;2023-05-12T22:28:35;101335.91;;;14.05;75.10
35224;BME280;21367;51.930;8.112;2023-05-12T22:33:39;101338.66;;;14.10;77.15
35224;BME280;21367;51.930;8.112;2023-05-12T22:38:46;101338.25;;;13.99;77.54
35224;BME280;21367;51.930;8.112;2023-05-12T22:43:49;101337.16;;;13.93;76.33
35224;BME280;21367;51.930;8.112;2023-05-12T22:48:53;101336.63;;;14.01;75.75
35224;BME280;21367;51.930;8.112;2023-05-12T22:54:00;101330.28;;;13.93;76.51
35224;BME280;21367;51.930;8.112;2023-05-12T22:59:04;101335.72;;;13.78;76.86
35224;BME280;21367;51.930;8.112;2023-05-12T23:04:07;101334.09;;;13.80;77.23
35224;BME280;21367;51.930;8.112;2023-05-12T23:09:14;101343.81;;;13.65;77.94
35224;BME280;21367;51.930;8.112;2023-05-12T23:14:18;101339.28;;;13.59;78.49
35224;BME280;21367;51.930;8.112;2023-05-12T23:19:22;101333.25;;;13.59;78.26
35224;BME280;21367;51.930;8.112;2023-05-12T23:24:29;101332.63;;;13.43;79.77
35224;BME280;21367;51.930;8.112;2023-05-12T23:29:33;101338.53;;;13.20;81.07
35224;BME280;21367;51.930;8.112;2023-05-12T23:34:37;101332.97;;;13.30;80.35
35224;BME280;21367;51.930;8.112;2023-05-12T23:39:45;101339.47;;;13.22;80.56
35224;BME280;21367;51.930;8.112;2023-05-12T23:44:48;101341.00;;;13.17;80.93
35224;BME280;21367;51.930;8.112;2023-05-12T23:49:52;101330.72;;;13.18;80.38
35224;BME280;21367;51.930;8.112;2023-05-12T23:54:58;101327.69;;;13.08;80.89
